関西国際空港の過去48時間の天気

関西国際空港 (Kansai intl)

現在時刻: 2/23 21:42 JST (2/23 12:42 UTC) 以下の時間は現地時間です。

過去48時間のMETAR気象情報
時間 風向 風速(m/s) 視程 気温(℃) 湿度(%) 気圧(hPa) 天気現象
23 21:00 北北東 3 10km以上 7 57 1025
23 20:30 3 10km以上 7 66 1025
23 20:00 4 10km以上 8 49 1024
23 19:30 北北西 5 10km以上 8 53 1024
23 19:00 西北西 4 10km以上 8 49 1024
23 18:30 西北西 3 10km以上 8 49 1023
23 18:00 不定 1 10km以上 8 53 1023
23 17:30 南西 2 10km以上 8 57 1023
23 17:00 西南西 2 10km以上 8 53 1023
23 16:30 南西 2 10km以上 9 46 1023
23 16:00 南西 3 10km以上 9 50 1022
23 15:30 南西 3 10km以上 9 43 1022
23 15:00 西 4 10km以上 10 34 1022
23 14:30 西 5 10km以上 9 34 1021
23 14:00 西北西 6 10km以上 9 32 1021
23 13:30 西北西 6 10km以上 9 32 1021
23 13:00 西 5 10km以上 9 37 1022
23 12:30 西 3 10km以上 9 40 1022
23 12:00 西 3 10km以上 8 42 1022
23 11:30 北西 4 10km以上 8 46 1022
23 11:00 北西 4 10km以上 8 53 1022
23 10:30 西北西 4 10km以上 7 53 1023
23 10:00 西南西 3 10km以上 7 49 1023
23 09:30 西 4 10km以上 7 49 1022
23 09:00 西北西 5 10km以上 6 65 1022
23 08:30 北西 3 10km以上 6 65 1022
23 08:00 北西 5 10km以上 5 75 1022
23 07:30 北西 5 10km以上 5 81 1022
23 07:00 南西 1 10km以上 3 81 1021
23 06:30 南南西 1 10km以上 4 81 1021
23 06:00 南南東 2 10km以上 4 81 1021
23 05:30 南南東 2 10km以上 4 81 1020
23 05:00 南南東 2 10km以上 4 81 1020
23 04:30 南東 2 10km以上 4 75 1020
23 04:00 東南東 2 10km以上 4 75 1020
23 03:30 2 10km以上 5 70 1020
23 03:00 東北東 1 10km以上 4 75 1020
23 02:30 東北東 2 10km以上 5 75 1020
23 02:00 東南東 2 10km以上 5 75 1020
23 01:30 東南東 3 10km以上 5 75 1020
23 01:00 北東 2 10km以上 5 75 1020
23 00:30 北北西 2 10km以上 7 57 1020
23 00:00 3 10km以上 6 61 1020
22 23:30 北北西 3 10km以上 6 61 1020
22 23:00 北北西 3 10km以上 6 65 1020
22 22:30 北北西 5 10km以上 7 61 1020
22 22:00 北北西 3 10km以上 7 53 1020
22 21:30 不定 1 10km以上 6 57 1020
22 21:00 南南西 2 10km以上 7 61 1020
22 20:30 南南西 2 10km以上 7 57 1020
22 20:00 不定 1 10km以上 7 49 1019
22 19:30 不定 1 10km以上 7 53 1019
22 19:00 不定 1 10km以上 7 53 1019
22 18:30 南南東 2 10km以上 7 53 1019
22 18:00 2 10km以上 7 53 1019
22 17:30 不定 1 10km以上 7 53 1019
22 17:00 西 1 10km以上 7 49 1019
22 16:30 西 1 10km以上 8 42 1018
22 16:00 不定 1 10km以上 8 42 1018
22 15:30 不定 1 10km以上 7 61 1018
22 15:00 1 10km以上 7 53 1018
22 14:30 不定 1 10km以上 8 49 1019
22 14:00 不定 1 10km以上 8 53 1019
22 09:30 北東 5 10km以上 6 65 1021
22 09:00 東北東 5 10km以上 5 70 1021
22 08:30 東北東 5 10km以上 5 70 1021
22 08:00 東北東 4 10km以上 4 75 1021
22 07:30 3 10km以上 4 75 1021
22 07:00 東北東 5 10km以上 4 75 1020
22 06:30 東北東 5 10km以上 5 70 1020
22 06:00 東北東 3 10km以上 4 75 1020
22 05:30 北東 3 10km以上 3 75 1020
22 05:00 北東 3 10km以上 4 70 1020
22 04:30 北東 5 10km以上 4 70 1020
22 04:00 北東 4 10km以上 3 75 1020
22 03:30 東北東 3 10km以上 4 65 1020
22 03:00 北東 4 10km以上 5 70 1020
22 02:30 北東 3 10km以上 5 65 1020
22 02:00 東北東 3 10km以上 5 65 1020
22 01:30 東北東 3 10km以上 5 65 1019
22 01:00 3 10km以上 6 65 1019
21 23:30 3 10km以上 5 70 1019
21 23:00 4 10km以上 6 70 1019
21 22:30 東北東 5 10km以上 6 70 1019
21 22:00 北東 7 10km以上 6 61 1019
RJBB 231200Z 02005KT CAVOK 07/M01 Q1025 NOSIG
RJBB 231130Z 01006KT CAVOK 07/01 Q1025 NOSIG
RJBB 231100Z 36007KT CAVOK 08/M02 Q1024 NOSIG
RJBB 231030Z 33009KT 9999 FEW040 08/M01 Q1024 NOSIG
RJBB 231000Z 30007KT CAVOK 08/M02 Q1024 BECMG 36008KT
RJBB 230930Z 30006KT CAVOK 08/M02 Q1023 BECMG 35008KT
RJBB 230900Z VRB02KT 9999 FEW040 08/M01 Q1023 BECMG 35008KT
RJBB 230830Z 23003KT 190V260 9999 FEW040 08/00 Q1023 BECMG 35009KT
RJBB 230800Z 24003KT 9999 FEW035 08/M01 Q1023 NOSIG
RJBB 230730Z 22003KT 190V270 9999 FEW035 09/M02 Q1023 BECMG 28010KT
RJBB 230700Z 22006KT 9999 FEW035 09/M01 Q1022 NOSIG
RJBB 230630Z 22005KT 9999 FEW035 09/M03 Q1022 NOSIG
RJBB 230600Z 26007KT 9999 FEW035 10/M05 Q1022 NOSIG
RJBB 230530Z 27010KT 9999 FEW035 09/M06 Q1021 NOSIG
RJBB 230500Z 29011KT 9999 FEW035 09/M07 Q1021 NOSIG
RJBB 230430Z 29012KT 9999 FEW030 09/M07 Q1021 NOSIG
RJBB 230400Z 28009KT 9999 FEW030 09/M05 Q1022 NOSIG
RJBB 230330Z 27005KT 240V300 9999 FEW030 09/M04 Q1022 NOSIG
RJBB 230300Z 28005KT 9999 FEW030 08/M04 Q1022 NOSIG
RJBB 230230Z 31007KT 9999 FEW030 08/M03 Q1022 NOSIG
RJBB 230200Z 32007KT 260V340 9999 FEW025 08/M01 Q1022 BECMG 31008KT
RJBB 230130Z 29008KT 9999 FEW025 07/M02 Q1023 NOSIG
RJBB 230100Z 25006KT 9999 FEW025 07/M03 Q1023 NOSIG
RJBB 230030Z 28007KT 9999 FEW025 07/M03 Q1022 NOSIG
RJBB 230000Z 30009KT 9999 FEW025 06/00 Q1022 NOSIG
RJBB 222330Z 31006KT 250V030 9999 FEW025 SCT/// 06/00 Q1022 NOSIG
RJBB 222300Z 31010KT 9999 FEW020 SCT040 BKN/// 05/01 Q1022 NOSIG
RJBB 222230Z 31009KT 9999 FEW020 SCT030 BKN/// 05/02 Q1022 NOSIG
RJBB 222200Z 23001KT 9999 FEW020 BKN/// 03/00 Q1021 NOSIG
RJBB 222130Z 20002KT 9999 FEW025 BKN/// 04/01 Q1021 NOSIG
RJBB 222100Z 16003KT 9999 FEW025 BKN/// 04/01 Q1021 BECMG 06005KT
RJBB 222030Z AUTO 16003KT 9999 NCD 04/01 Q1020 BECMG 06005KT
RJBB 222000Z AUTO 15003KT 9999 NCD 04/01 Q1020 NOSIG
RJBB 221930Z AUTO 14003KT 9999 NCD 04/00 Q1020 NOSIG
RJBB 221900Z AUTO 11003KT 9999 NCD 04/00 Q1020 NOSIG
RJBB 221830Z AUTO 10003KT 9999 NCD 05/00 Q1020 NOSIG
RJBB 221800Z AUTO 07002KT 9999 NCD 04/00 Q1020 NOSIG
RJBB 221730Z AUTO 06003KT 9999 NCD 05/01 Q1020 NOSIG
RJBB 221700Z AUTO 12003KT 9999 NCD 05/01 Q1020 NOSIG
RJBB 221630Z AUTO 12005KT 9999 NCD 05/01 Q1020 NOSIG
RJBB 221600Z AUTO 04004KT 9999 NCD 05/01 Q1020 NOSIG
RJBB 221530Z AUTO 34003KT 9999 NCD 07/M01 Q1020 NOSIG
RJBB 221500Z AUTO 35006KT 9999 NCD 06/M01 Q1020 NOSIG
RJBB 221430Z AUTO 33006KT 300V050 9999 NCD 06/M01 Q1020 NOSIG
RJBB 221400Z AUTO 34006KT 9999 NCD 06/00 Q1020 NOSIG
RJBB 221330Z 34009KT 9999 FEW040 BKN/// 07/00 Q1020 NOSIG
RJBB 221300Z 34005KT 9999 FEW040 BKN/// 07/M02 Q1020 NOSIG
RJBB 221230Z VRB02KT 9999 FEW040 SCT050 BKN/// 06/M02 Q1020 NOSIG
RJBB 221200Z 20004KT 160V220 9999 FEW040 BKN050 BKN/// 07/M00 Q1020 NOSIG
RJBB 221130Z 21003KT 150V240 9999 FEW040 SCT050 BKN120 07/M01 Q1020 NOSIG
RJBB 221100Z VRB01KT 9999 FEW040 BKN050 BKN120 07/M03 Q1019 NOSIG
RJBB 221030Z VRB01KT 9999 FEW040 SCT050 BKN120 07/M02 Q1019 NOSIG
RJBB 221000Z VRB02KT 9999 FEW040 BKN050 BKN120 07/M02 Q1019 NOSIG
RJBB 220930Z 16003KT 9999 FEW040 BKN050 BKN/// 07/M02 Q1019 NOSIG
RJBB 220900Z 18003KT 140V210 9999 FEW040 SCT050 BKN120 07/M02 Q1019 NOSIG
RJBB 220830Z VRB02KT 9999 FEW035 SCT050 BKN/// 07/M02 Q1019 NOSIG
RJBB 220800Z 27002KT 9999 FEW035 BKN/// 07/M03 Q1019 NOSIG
RJBB 220730Z 27002KT 9999 FEW025 BKN/// 08/M04 Q1018 NOSIG
RJBB 220700Z VRB01KT 9999 FEW025 BKN/// 08/M04 Q1018 NOSIG
RJBB 220630Z VRB01KT 9999 FEW025 BKN/// 07/M00 Q1018 NOSIG
RJBB 220600Z 36002KT 9999 FEW025 BKN/// 07/M02 Q1018 BECMG 27005KT
RJBB 220530Z VRB02KT 9999 FEW030 BKN/// 08/M02 Q1019 BECMG 27005KT
RJBB 220500Z VRB02KT 9999 FEW030 BKN/// 08/M01 Q1019 BECMG 30005KT
RJBB 220030Z 05009KT 9999 FEW020 BKN/// 06/00 Q1021 NOSIG
RJBB 220000Z 06010KT 9999 FEW020 BKN/// 05/00 Q1021 NOSIG
RJBB 212330Z 06009KT 9999 FEW030 BKN/// 05/M00 Q1021 NOSIG
RJBB 212300Z 07008KT 9999 FEW030 BKN/// 04/M00 Q1021 NOSIG
RJBB 212230Z 09006KT 9999 FEW030 BKN/// 04/M00 Q1021 NOSIG
RJBB 212200Z 06009KT 9999 FEW030 SCT/// 04/00 Q1020 NOSIG
RJBB 212130Z 06009KT 9999 FEW030 05/00 Q1020 NOSIG
RJBB 212100Z 06006KT 9999 FEW030 04/M00 Q1020 NOSIG
RJBB 212030Z AUTO 05006KT 9999 NSC 03/M01 Q1020 NOSIG
RJBB 212000Z AUTO 05005KT 010V070 9999 FEW038 OVC060 04/M01 Q1020 NOSIG
RJBB 211930Z AUTO 05009KT 9999 NSC 04/M01 Q1020 NOSIG
RJBB 211900Z AUTO 05008KT 9999 NSC 03/M01 Q1020 NOSIG
RJBB 211830Z AUTO 07005KT 9999 NSC 04/M02 Q1020 NOSIG
RJBB 211800Z AUTO 05007KT 9999 NSC 05/M00 Q1020 NOSIG
RJBB 211730Z AUTO 05006KT 9999 NSC 05/M01 Q1020 NOSIG
RJBB 211700Z AUTO 07005KT 9999 NSC 05/M01 Q1020 NOSIG
RJBB 211630Z AUTO 07006KT 9999 NSC 05/M01 Q1019 NOSIG
RJBB 211600Z AUTO 08005KT 9999 FEW050 OVC060 06/M00 Q1019 NOSIG
RJBB 211430Z AUTO 08006KT 9999 BKN046 BKN060 05/M00 Q1019 NOSIG
RJBB 211400Z AUTO 10008KT 9999 FEW043 BKN050 BKN060 06/01 Q1019 NOSIG
RJBB 211330Z 07009KT 9999 FEW030 BKN060 06/01 Q1019 NOSIG
RJBB 211300Z 05013KT 9999 FEW030 BKN060 06/M01 Q1019 NOSIG